createdAt,value
2023-03-17T00:01:25.125Z,91.27
2023-03-17T00:03:53.107Z,92.38
2023-03-17T00:06:28.590Z,93.42
2023-03-17T00:08:57.590Z,92.71
2023-03-17T00:11:27.702Z,92.17
2023-03-17T00:13:55.737Z,90.71
2023-03-17T00:16:27.132Z,88.36
2023-03-17T00:18:56.786Z,88.52
2023-03-17T00:21:28.430Z,88.43
2023-03-17T00:23:57.406Z,88.36
2023-03-17T00:26:25.461Z,88.04
2023-03-17T00:28:54.490Z,88.42
2023-03-17T00:31:26.416Z,89.08
2023-03-17T00:33:55.979Z,88.68
2023-03-17T00:36:26.057Z,88.38
2023-03-17T00:38:53.962Z,88.45
2023-03-17T00:41:22.463Z,88.01
2023-03-17T00:43:50.756Z,87.92
2023-03-17T00:46:24.465Z,88.07
2023-03-17T00:48:54.365Z,88.85
2023-03-17T00:51:23.425Z,88.72
2023-03-17T00:53:51.933Z,89.43
2023-03-17T00:56:22.197Z,89.20
2023-03-17T00:58:50.522Z,89.05
2023-03-17T01:01:20.052Z,90.00
2023-03-17T01:03:48.006Z,90.47
2023-03-17T01:06:18.105Z,90.09
2023-03-17T01:08:46.625Z,90.92
2023-03-17T01:11:18.805Z,90.83
2023-03-17T01:13:47.130Z,91.64
2023-03-17T01:16:15.904Z,91.85
2023-03-17T01:18:44.345Z,92.17
2023-03-17T01:21:12.747Z,92.55
2023-03-17T01:23:43.709Z,92.56
2023-03-17T01:26:11.837Z,93.32
2023-03-17T01:28:39.792Z,92.54
2023-03-17T01:31:07.781Z,92.09
2023-03-17T01:33:35.672Z,91.43
2023-03-17T01:36:03.689Z,92.16
2023-03-17T01:38:31.593Z,91.79
2023-03-17T01:41:03.437Z,91.96
2023-03-17T01:43:31.957Z,91.60
2023-03-17T01:46:21.934Z,92.46
2023-03-17T01:48:56.016Z,92.96
2023-03-17T01:51:29.590Z,92.46
2023-03-17T01:53:58.567Z,92.76
2023-03-17T01:56:28.345Z,92.46
2023-03-17T01:58:58.330Z,91.99
2023-03-17T02:01:32.095Z,93.17
2023-03-17T02:04:01.020Z,94.57
2023-03-17T02:06:29.632Z,95.32
2023-03-17T02:08:57.731Z,95.71
2023-03-17T02:11:27.410Z,95.81
2023-03-17T02:13:55.668Z,96.15
2023-03-17T02:16:23.825Z,97.44
2023-03-17T02:18:51.800Z,96.40
2023-03-17T02:21:42.817Z,96.07
2023-03-17T02:24:17.653Z,95.38
2023-03-17T02:26:48.466Z,94.79
2023-03-17T02:29:16.785Z,93.55
2023-03-17T02:31:45.873Z,94.69
2023-03-17T02:34:13.861Z,94.86
2023-03-17T02:36:43.254Z,94.51
2023-03-17T02:39:11.206Z,94.58
2023-03-17T02:41:39.152Z,94.19
2023-03-17T02:44:07.288Z,94.32
2023-03-17T02:46:35.767Z,94.59
2023-03-17T02:49:04.407Z,95.57
2023-03-17T02:51:33.187Z,96.53
2023-03-17T02:54:02.525Z,97.44
2023-03-17T02:56:31.079Z,96.95
2023-03-17T02:58:58.963Z,96.89
2023-03-17T03:01:27.410Z,98.02
2023-03-17T03:03:55.353Z,99.94
2023-03-17T03:06:23.821Z,100.00
2023-03-17T03:08:52.062Z,100.00
2023-03-17T03:11:21.609Z,100.00
2023-03-17T03:13:49.522Z,100.00
2023-03-17T03:16:17.732Z,100.00
2023-03-17T03:18:45.693Z,100.00
2023-03-17T03:21:13.913Z,100.00
2023-03-17T03:23:41.898Z,100.00
2023-03-17T03:26:09.888Z,100.00
2023-03-17T03:28:39.210Z,100.00
2023-03-17T03:31:07.528Z,100.00
2023-03-17T03:33:35.603Z,100.00
2023-03-17T03:36:03.858Z,100.00
2023-03-17T03:38:31.852Z,100.00
2023-03-17T03:40:59.768Z,100.00
2023-03-17T03:43:27.825Z,100.00
2023-03-17T03:45:57.272Z,100.00
2023-03-17T03:48:25.265Z,100.00
2023-03-17T03:50:57.843Z,100.00
2023-03-17T03:53:25.875Z,100.00
2023-03-17T03:55:54.245Z,100.00
2023-03-17T03:58:22.578Z,100.00
2023-03-17T04:00:50.593Z,100.00
2023-03-17T04:03:20.285Z,100.00
2023-03-17T04:05:48.253Z,100.00
2023-03-17T04:08:16.553Z,100.00
2023-03-17T04:10:44.655Z,100.00
2023-03-17T04:13:12.964Z,100.00
2023-03-17T04:15:40.984Z,100.00
2023-03-17T04:18:09.778Z,100.00
2023-03-17T04:20:39.658Z,100.00
2023-03-17T04:23:08.006Z,100.00
2023-03-17T04:25:36.749Z,100.00
2023-03-17T04:28:05.090Z,100.00
2023-03-17T04:30:33.329Z,100.00
2023-03-17T04:33:01.363Z,100.00
2023-03-17T04:35:29.338Z,100.00
2023-03-17T04:37:58.637Z,100.00
2023-03-17T04:40:27.509Z,100.00
2023-03-17T04:42:55.504Z,100.00
2023-03-17T04:45:23.480Z,100.00
2023-03-17T04:47:51.419Z,100.00
2023-03-17T04:50:19.466Z,100.00
2023-03-17T04:52:47.357Z,100.00
2023-03-17T04:55:16.695Z,100.00
2023-03-17T04:57:45.256Z,100.00
2023-03-17T05:00:15.584Z,100.00
2023-03-17T05:02:44.224Z,100.00
2023-03-17T05:05:12.328Z,100.00
2023-03-17T05:07:40.210Z,100.00
2023-03-17T05:10:09.481Z,100.00
2023-03-17T05:12:38.975Z,100.00
2023-03-17T05:15:08.032Z,100.00
2023-03-17T05:17:35.984Z,100.00
2023-03-17T05:20:04.375Z,100.00
2023-03-17T05:22:32.590Z,100.00
2023-03-17T05:25:00.552Z,100.00
2023-03-17T05:27:28.447Z,100.00
2023-03-17T05:29:57.778Z,100.00
2023-03-17T05:32:25.845Z,100.00
2023-03-17T05:34:53.818Z,100.00
2023-03-17T05:37:21.771Z,100.00
2023-03-17T05:39:49.707Z,100.00
2023-03-17T05:42:17.620Z,100.00
2023-03-17T05:44:45.553Z,100.00
2023-03-17T05:47:14.954Z,100.00
2023-03-17T05:49:42.935Z,100.00
2023-03-17T05:52:10.978Z,100.00
2023-03-17T05:54:38.970Z,100.00
2023-03-17T05:57:07.775Z,100.00
2023-03-17T05:59:36.275Z,100.00
2023-03-17T06:02:04.294Z,100.00
2023-03-17T06:04:34.060Z,100.00
2023-03-17T06:07:02.012Z,100.00
2023-03-17T06:09:30.064Z,100.00
2023-03-17T06:11:58.039Z,100.00
2023-03-17T06:14:27.160Z,100.00
2023-03-17T06:16:55.772Z,100.00
2023-03-17T06:19:23.837Z,100.00
2023-03-17T06:21:53.320Z,100.00
2023-03-17T06:24:21.322Z,100.00
2023-03-17T06:26:49.250Z,100.00
2023-03-17T06:29:17.158Z,100.00
2023-03-17T06:31:50.547Z,100.00
2023-03-17T06:34:18.931Z,100.00
2023-03-17T06:36:47.239Z,100.00
2023-03-17T06:39:18.204Z,100.00
2023-03-17T06:41:46.211Z,100.00
2023-03-17T06:44:14.294Z,100.00
2023-03-17T06:46:42.574Z,100.00
2023-03-17T06:49:13.519Z,100.00
2023-03-17T06:51:41.624Z,100.00
2023-03-17T06:54:09.728Z,99.37
2023-03-17T06:56:39.024Z,96.42
2023-03-17T06:59:06.957Z,97.32
2023-03-17T07:01:34.945Z,100.00
2023-03-17T07:04:02.930Z,96.50
2023-03-17T07:06:31.072Z,96.27
2023-03-17T07:09:01.971Z,94.18
2023-03-17T07:11:30.828Z,96.08
2023-03-17T07:14:00.582Z,99.95
2023-03-17T07:16:28.983Z,99.27
2023-03-17T07:18:57.148Z,97.09
2023-03-17T07:21:25.089Z,98.43
2023-03-17T07:23:53.024Z,100.00
2023-03-17T07:26:20.940Z,100.00
2023-03-17T07:28:49.177Z,100.00
2023-03-17T07:31:18.550Z,100.00
2023-03-17T07:33:47.006Z,100.00
2023-03-17T07:36:15.921Z,100.00
2023-03-17T07:38:44.370Z,100.00
2023-03-17T07:41:12.360Z,100.00
2023-03-17T07:43:40.586Z,97.71
2023-03-17T07:46:08.608Z,92.58
2023-03-17T07:48:42.138Z,86.84
2023-03-17T07:51:15.572Z,82.78
2023-03-17T07:53:45.177Z,83.48
2023-03-17T07:56:14.265Z,89.72
2023-03-17T07:58:42.179Z,78.91
2023-03-17T08:01:10.167Z,76.09
2023-03-17T08:03:41.561Z,76.05
2023-03-17T08:06:09.868Z,73.94
2023-03-17T08:08:37.751Z,73.55
2023-03-17T08:11:07.753Z,67.40
2023-03-17T08:13:35.955Z,61.57
2023-03-17T08:16:03.913Z,64.04
2023-03-17T08:18:32.078Z,65.04
2023-03-17T08:21:02.248Z,63.44
2023-03-17T08:23:30.296Z,60.57
2023-03-17T08:25:58.974Z,64.03
2023-03-17T08:28:28.003Z,64.88
2023-03-17T08:30:57.900Z,59.55
2023-03-17T08:33:25.941Z,62.12
2023-03-17T08:35:54.199Z,67.37
2023-03-17T08:38:23.557Z,64.14
2023-03-17T08:40:51.730Z,63.96
2023-03-17T08:43:19.773Z,61.38
2023-03-17T08:45:48.244Z,66.81
2023-03-17T08:48:16.195Z,65.01
2023-03-17T08:50:44.152Z,65.39
2023-03-17T08:53:12.078Z,65.54
2023-03-17T08:55:41.348Z,62.91
2023-03-17T08:58:09.659Z,63.51
2023-03-17T09:00:37.637Z,65.12
2023-03-17T09:03:05.929Z,62.79
2023-03-17T09:05:36.264Z,63.44
2023-03-17T09:08:06.338Z,61.78
2023-03-17T09:10:34.475Z,61.38
2023-03-17T09:13:04.779Z,60.64
2023-03-17T09:15:34.063Z,62.76
2023-03-17T09:18:03.322Z,63.14
2023-03-17T09:20:31.686Z,60.40
2023-03-17T09:23:00.878Z,59.66
2023-03-17T09:25:28.921Z,62.09
2023-03-17T09:27:57.221Z,62.00
2023-03-17T09:30:27.248Z,60.73
2023-03-17T09:32:55.200Z,62.04
2023-03-17T09:35:23.453Z,63.31
2023-03-17T09:37:51.649Z,59.53
2023-03-17T09:40:22.502Z,59.08
2023-03-17T09:43:07.210Z,60.08
2023-03-17T09:45:38.924Z,61.76
2023-03-17T09:48:46.461Z,64.36
2023-03-17T09:51:18.483Z,73.86
2023-03-17T09:53:52.806Z,76.90
2023-03-17T09:56:21.229Z,77.40
2023-03-17T09:58:53.762Z,76.28
2023-03-17T10:01:23.954Z,78.72
2023-03-17T10:03:52.300Z,80.19
2023-03-17T10:06:33.657Z,80.42
2023-03-17T10:09:12.796Z,80.27
2023-03-17T10:11:43.487Z,79.15
2023-03-17T10:14:38.359Z,76.56
2023-03-17T10:17:14.010Z,78.08
2023-03-17T10:19:46.090Z,75.05
2023-03-17T10:22:19.519Z,76.01
2023-03-17T10:24:52.948Z,76.03
2023-03-17T10:27:21.720Z,73.39
2023-03-17T10:29:49.754Z,73.29
2023-03-17T10:32:19.033Z,69.53
2023-03-17T10:34:48.792Z,72.74
2023-03-17T10:37:19.685Z,75.40
2023-03-17T10:39:49.361Z,71.81
2023-03-17T10:42:24.584Z,68.96
2023-03-17T10:44:56.834Z,66.68
2023-03-17T10:47:33.303Z,68.61
2023-03-17T10:50:05.631Z,68.49
2023-03-17T10:52:39.641Z,63.94
2023-03-17T10:55:09.165Z,59.27
2023-03-17T10:57:38.956Z,62.91
2023-03-17T11:00:16.698Z,64.09
2023-03-17T11:02:52.516Z,63.86
2023-03-17T11:05:23.027Z,59.87
2023-03-17T11:07:51.697Z,60.17
2023-03-17T11:10:22.164Z,65.28
2023-03-17T11:12:58.797Z,59.61
2023-03-17T11:15:33.813Z,65.77
2023-03-17T11:18:05.645Z,61.00
2023-03-17T11:20:47.112Z,58.77
2023-03-17T11:23:26.545Z,60.78
2023-03-17T11:26:06.759Z,62.62
2023-03-17T11:28:39.793Z,63.11
2023-03-17T11:31:13.195Z,60.11
2023-03-17T11:33:50.854Z,65.59
2023-03-17T11:36:37.391Z,65.38
2023-03-17T11:39:13.696Z,66.16
2023-03-17T11:41:52.285Z,64.53
2023-03-17T11:44:53.737Z,62.42
2023-03-17T11:47:33.049Z,62.01
2023-03-17T11:50:10.100Z,60.75
2023-03-17T11:52:55.353Z,62.61
2023-03-17T11:55:28.652Z,63.58
2023-03-17T11:58:00.019Z,61.23
2023-03-17T12:00:33.749Z,62.32
2023-03-17T12:03:09.606Z,61.45
2023-03-17T12:05:39.893Z,60.91
2023-03-17T12:08:15.350Z,63.73
2023-03-17T12:10:49.562Z,65.67
2023-03-17T12:13:19.715Z,65.13
2023-03-17T12:15:53.115Z,66.35
2023-03-17T12:18:27.319Z,64.43
2023-03-17T12:21:01.693Z,62.43
2023-03-17T12:23:38.346Z,65.29
2023-03-17T12:26:10.834Z,64.97
2023-03-17T12:28:45.254Z,67.17
2023-03-17T12:31:18.448Z,70.33
2023-03-17T12:33:52.043Z,70.37
2023-03-17T12:36:23.072Z,68.16
2023-03-17T12:38:56.906Z,70.37
2023-03-17T12:41:34.986Z,68.66
2023-03-17T12:44:08.012Z,70.35
2023-03-17T12:46:54.131Z,70.26
2023-03-17T12:49:52.512Z,69.80
2023-03-17T12:52:41.234Z,68.85
2023-03-17T12:55:13.559Z,66.66
2023-03-17T12:57:43.816Z,66.70
2023-03-17T13:00:25.282Z,65.60
2023-03-17T13:03:13.364Z,64.97
2023-03-17T13:05:47.129Z,69.15
2023-03-17T13:08:22.817Z,67.49
2023-03-17T13:10:51.284Z,64.94
2023-03-17T13:13:41.817Z,63.65
2023-03-17T13:16:28.075Z,66.75
2023-03-17T13:19:18.739Z,64.47
2023-03-17T13:21:50.789Z,63.88
2023-03-17T13:24:42.575Z,61.40
2023-03-17T13:27:15.220Z,66.62
2023-03-17T13:29:46.107Z,64.68
2023-03-17T13:32:38.376Z,66.60
2023-03-17T13:35:16.842Z,65.81
2023-03-17T13:38:13.635Z,67.31
2023-03-17T13:40:54.029Z,68.79
2023-03-17T13:43:43.420Z,69.69
2023-03-17T13:46:22.347Z,72.97
2023-03-17T13:48:50.934Z,70.69
2023-03-17T13:51:22.578Z,69.66
2023-03-17T13:53:55.556Z,72.07
2023-03-17T13:56:27.932Z,71.23
2023-03-17T13:59:15.118Z,69.34
2023-03-17T14:01:49.013Z,68.69
2023-03-17T14:04:21.704Z,70.64
2023-03-17T14:06:53.262Z,68.94
2023-03-17T14:09:32.666Z,70.65
2023-03-17T14:12:07.196Z,73.01
2023-03-17T14:14:47.193Z,71.56
2023-03-17T14:17:20.361Z,72.62
2023-03-17T14:20:19.738Z,71.20
2023-03-17T14:22:49.620Z,74.75
2023-03-17T14:25:19.772Z,72.18
2023-03-17T14:27:52.587Z,71.50
2023-03-17T14:30:23.309Z,71.15
2023-03-17T14:32:56.242Z,74.51
2023-03-17T14:35:24.224Z,77.91
2023-03-17T14:37:52.129Z,79.48
2023-03-17T14:40:23.386Z,79.41
2023-03-17T14:42:52.889Z,79.16
2023-03-17T14:45:28.140Z,79.20
2023-03-17T14:47:56.868Z,79.47
2023-03-17T14:50:28.743Z,79.29
2023-03-17T14:52:58.704Z,79.85
2023-03-17T14:55:35.842Z,79.32
2023-03-17T14:58:11.063Z,79.97
2023-03-17T15:00:44.943Z,79.81
2023-03-17T15:03:19.588Z,79.30
2023-03-17T15:05:49.056Z,79.01
2023-03-17T15:08:47.018Z,79.30
2023-03-17T15:11:24.961Z,78.83
2023-03-17T15:14:04.884Z,79.80
2023-03-17T15:16:36.592Z,79.57
2023-03-17T15:19:08.501Z,80.04
2023-03-17T15:21:40.993Z,79.46
2023-03-17T15:24:27.360Z,78.77
2023-03-17T15:27:01.471Z,78.79
2023-03-17T15:29:31.146Z,79.87
2023-03-17T15:32:04.784Z,79.45
2023-03-17T15:34:32.777Z,79.92
2023-03-17T15:37:01.049Z,80.66
2023-03-17T15:39:28.988Z,81.20
2023-03-17T15:41:56.904Z,81.73
2023-03-17T15:44:24.795Z,82.28
2023-03-17T15:46:54.431Z,82.81
2023-03-17T15:49:25.250Z,82.17
2023-03-17T15:51:54.715Z,81.22
2023-03-17T15:54:22.851Z,80.96
2023-03-17T15:56:50.953Z,81.01
2023-03-17T15:59:18.858Z,81.12
2023-03-17T16:01:46.977Z,81.46
2023-03-17T16:04:17.987Z,81.39
2023-03-17T16:06:47.952Z,80.56
2023-03-17T16:09:17.658Z,80.31
2023-03-17T16:11:45.844Z,80.04
2023-03-17T16:14:13.793Z,80.54
2023-03-17T16:16:45.856Z,79.50
2023-03-17T16:19:20.436Z,81.65
2023-03-17T16:21:49.101Z,80.86
2023-03-17T16:24:20.379Z,81.15
2023-03-17T16:26:48.570Z,81.42
2023-03-17T16:29:18.042Z,80.78
2023-03-17T16:31:48.995Z,81.39
2023-03-17T16:34:20.799Z,82.18
2023-03-17T16:36:50.408Z,82.83
2023-03-17T16:39:19.306Z,83.49
2023-03-17T16:41:48.235Z,83.89
2023-03-17T16:44:19.026Z,84.60
2023-03-17T16:46:47.045Z,84.22
2023-03-17T16:49:16.617Z,85.53
2023-03-17T16:51:46.448Z,85.99
2023-03-17T16:54:14.601Z,86.15
2023-03-17T16:56:43.500Z,88.20
2023-03-17T16:59:19.198Z,87.27
2023-03-17T17:01:47.193Z,88.23
2023-03-17T17:04:15.143Z,88.35
2023-03-17T17:06:43.094Z,88.58
2023-03-17T17:09:12.368Z,90.29
2023-03-17T17:11:40.335Z,90.39
2023-03-17T17:14:08.565Z,90.16
2023-03-17T17:16:39.909Z,90.94
2023-03-17T17:19:16.670Z,90.53
2023-03-17T17:21:45.798Z,90.26
2023-03-17T17:24:16.413Z,91.50
2023-03-17T17:26:44.391Z,92.14
2023-03-17T17:29:12.309Z,93.06
2023-03-17T17:31:40.971Z,92.80
2023-03-17T17:34:08.985Z,93.40
2023-03-17T17:36:36.954Z,94.60
2023-03-17T17:39:05.004Z,97.65
2023-03-17T17:41:34.967Z,98.53
2023-03-17T17:44:03.023Z,99.29
2023-03-17T17:46:31.018Z,99.53
2023-03-17T17:48:58.993Z,99.59
2023-03-17T17:51:28.755Z,98.32
2023-03-17T17:53:56.794Z,99.05
2023-03-17T17:56:25.040Z,98.98
2023-03-17T17:58:54.356Z,99.44
2023-03-17T18:01:22.806Z,99.49
2023-03-17T18:03:50.750Z,100.00
2023-03-17T18:06:18.706Z,100.00
2023-03-17T18:08:47.003Z,100.00
2023-03-17T18:11:14.963Z,100.00
2023-03-17T18:13:42.874Z,100.00
2023-03-17T18:16:19.775Z,98.59
2023-03-17T18:18:47.801Z,97.63
2023-03-17T18:21:16.236Z,99.80
2023-03-17T18:23:47.285Z,99.41
2023-03-17T18:26:16.162Z,98.94
2023-03-17T18:28:44.237Z,97.66
2023-03-17T18:31:17.446Z,98.38
2023-03-17T18:33:47.009Z,97.51
2023-03-17T18:36:15.485Z,99.14
2023-03-17T18:38:43.420Z,98.58
2023-03-17T18:41:12.435Z,99.60
2023-03-17T18:43:41.052Z,98.14
2023-03-17T18:46:09.010Z,97.20
2023-03-17T18:48:38.369Z,96.57
2023-03-17T18:51:06.985Z,95.72
2023-03-17T18:53:35.458Z,95.70
2023-03-17T18:56:03.855Z,95.00
2023-03-17T18:58:31.978Z,94.56
2023-03-17T19:01:02.062Z,94.19
2023-03-17T19:03:32.254Z,94.48
2023-03-17T19:06:08.910Z,93.88
2023-03-17T19:08:37.214Z,93.89
2023-03-17T19:11:06.776Z,92.55
2023-03-17T19:13:34.776Z,93.22
2023-03-17T19:16:03.014Z,93.80
2023-03-17T19:18:30.990Z,93.84
2023-03-17T19:20:58.913Z,93.70
2023-03-17T19:23:28.289Z,93.05
2023-03-17T19:25:56.363Z,92.94
2023-03-17T19:28:24.528Z,93.13
2023-03-17T19:30:52.529Z,93.67
2023-03-17T19:33:20.481Z,95.69
2023-03-17T19:35:55.054Z,97.89
2023-03-17T19:38:23.212Z,95.83
2023-03-17T19:40:53.047Z,93.74
2023-03-17T19:43:39.143Z,93.87
2023-03-17T19:46:08.971Z,91.12
2023-03-17T19:48:37.569Z,90.75
2023-03-17T19:51:07.104Z,90.67
2023-03-17T19:53:35.239Z,88.72
2023-03-17T19:56:05.516Z,86.69
2023-03-17T19:58:33.656Z,87.00
2023-03-17T20:01:01.786Z,86.35
2023-03-17T20:03:29.773Z,86.54
2023-03-17T20:05:57.734Z,85.98
2023-03-17T20:08:25.737Z,84.39
2023-03-17T20:10:53.964Z,83.79
2023-03-17T20:13:23.593Z,83.81
2023-03-17T20:15:52.959Z,84.86
2023-03-17T20:18:23.100Z,85.60
2023-03-17T20:20:54.256Z,86.01
2023-03-17T20:23:22.776Z,87.34
2023-03-17T20:25:52.350Z,88.23
2023-03-17T20:28:21.469Z,88.44
2023-03-17T20:30:50.975Z,88.97
2023-03-17T20:33:19.009Z,90.16
2023-03-17T20:35:48.152Z,91.13
2023-03-17T20:38:16.693Z,91.82
2023-03-17T20:40:44.650Z,93.08
2023-03-17T20:43:13.014Z,93.84
2023-03-17T20:45:42.659Z,93.84
2023-03-17T20:48:12.098Z,94.56
2023-03-17T20:50:41.050Z,94.24
2023-03-17T20:53:08.962Z,95.06
2023-03-17T20:55:37.621Z,95.46
2023-03-17T20:58:05.906Z,95.87
2023-03-17T21:00:34.270Z,95.75
2023-03-17T21:03:02.778Z,96.21
2023-03-17T21:05:32.761Z,96.11
2023-03-17T21:08:01.242Z,96.04
2023-03-17T21:10:30.848Z,96.35
2023-03-17T21:12:58.961Z,95.80
2023-03-17T21:15:26.945Z,96.05
2023-03-17T21:17:55.291Z,96.01
2023-03-17T21:20:25.298Z,95.91
2023-03-17T21:22:54.635Z,96.39
2023-03-17T21:25:22.685Z,95.94
2023-03-17T21:27:51.853Z,94.87
2023-03-17T21:30:19.934Z,94.79
2023-03-17T21:32:48.169Z,94.47
2023-03-17T21:35:16.330Z,94.74
2023-03-17T21:37:44.237Z,94.78
2023-03-17T21:40:15.782Z,94.09
2023-03-17T21:42:44.222Z,93.63
2023-03-17T21:45:12.743Z,93.46
2023-03-17T21:47:40.966Z,93.44
2023-03-17T21:50:09.556Z,94.10
2023-03-17T21:52:37.581Z,94.16
2023-03-17T21:55:07.487Z,93.78
2023-03-17T21:57:38.680Z,95.18
2023-03-17T22:00:09.711Z,94.85
2023-03-17T22:02:38.197Z,94.51
2023-03-17T22:05:07.021Z,94.91
2023-03-17T22:07:35.140Z,95.27
2023-03-17T22:10:06.308Z,95.51
2023-03-17T22:12:34.333Z,95.43
2023-03-17T22:15:04.454Z,95.19
2023-03-17T22:17:32.809Z,95.84
2023-03-17T22:20:00.727Z,95.52
2023-03-17T22:22:28.850Z,96.61
2023-03-17T22:24:57.392Z,96.31
2023-03-17T22:27:25.410Z,97.07
2023-03-17T22:29:53.732Z,98.10
2023-03-17T22:32:23.384Z,97.49
2023-03-17T22:34:51.357Z,97.36
2023-03-17T22:37:19.300Z,97.50
2023-03-17T22:39:47.264Z,97.67
2023-03-17T22:42:15.234Z,97.71
2023-03-17T22:44:43.212Z,97.89
2023-03-17T22:47:11.614Z,97.62
2023-03-17T22:49:41.010Z,97.26
2023-03-17T22:52:09.094Z,96.88
2023-03-17T22:54:37.072Z,96.03
2023-03-17T22:57:05.732Z,96.44
2023-03-17T22:59:33.841Z,96.59
2023-03-17T23:02:01.831Z,96.70
2023-03-17T23:04:29.788Z,96.30
2023-03-17T23:06:59.208Z,96.58
2023-03-17T23:09:27.142Z,95.45
2023-03-17T23:11:55.077Z,95.77
2023-03-17T23:14:23.548Z,96.60
2023-03-17T23:16:51.564Z,96.40
2023-03-17T23:19:19.501Z,96.03
2023-03-17T23:21:47.484Z,95.94
2023-03-17T23:24:16.877Z,95.46
2023-03-17T23:26:44.931Z,95.21
2023-03-17T23:29:12.849Z,94.91
2023-03-17T23:31:41.048Z,94.31
2023-03-17T23:34:10.037Z,93.95
2023-03-17T23:36:40.215Z,93.44
2023-03-17T23:39:08.644Z,93.43
2023-03-17T23:41:38.005Z,92.98
2023-03-17T23:44:06.665Z,93.60
2023-03-17T23:46:34.713Z,94.16
2023-03-17T23:49:02.836Z,94.76
2023-03-17T23:51:30.738Z,94.85
2023-03-17T23:53:59.207Z,94.90
2023-03-17T23:56:27.518Z,95.11
2023-03-17T23:58:56.815Z,95.01
